createdAt,value
2023-05-14T00:01:12.187Z,12.10
2023-05-14T00:03:41.226Z,12.10
2023-05-14T00:06:09.126Z,12.00
2023-05-14T00:08:36.100Z,12.00
2023-05-14T00:11:03.065Z,12.10
2023-05-14T00:13:29.906Z,12.00
2023-05-14T00:15:56.867Z,12.00
2023-05-14T00:18:23.800Z,12.00
2023-05-14T00:20:54.745Z,12.00
2023-05-14T00:23:22.710Z,12.00
2023-05-14T00:25:49.826Z,11.90
2023-05-14T00:28:16.995Z,11.90
2023-05-14T00:30:45.052Z,11.90
2023-05-14T00:33:12.006Z,11.90
2023-05-14T00:35:38.947Z,11.90
2023-05-14T00:38:05.967Z,11.80
2023-05-14T00:40:32.861Z,11.90
2023-05-14T00:42:59.789Z,11.90
2023-05-14T00:45:27.253Z,11.90
2023-05-14T00:47:54.284Z,11.90
2023-05-14T00:50:21.822Z,12.00
2023-05-14T00:52:49.421Z,12.00
2023-05-14T00:55:16.965Z,12.00
2023-05-14T00:57:44.274Z,11.90
2023-05-14T01:00:11.997Z,11.90
2023-05-14T01:02:38.975Z,11.90
2023-05-14T01:05:06.969Z,11.80
2023-05-14T01:07:49.455Z,11.80
2023-05-14T01:10:32.625Z,11.80
2023-05-14T01:13:47.719Z,11.70
2023-05-14T01:16:18.776Z,11.60
2023-05-14T01:18:48.761Z,11.60
2023-05-14T01:21:33.155Z,11.60
2023-05-14T01:24:00.117Z,11.60
2023-05-14T01:26:27.147Z,11.60
2023-05-14T01:28:56.475Z,11.60
2023-05-14T01:31:28.792Z,11.60
2023-05-14T01:33:59.431Z,11.60
2023-05-14T01:36:27.834Z,11.60
2023-05-14T01:38:56.289Z,11.60
2023-05-14T01:41:25.499Z,11.60
2023-05-14T01:43:52.924Z,11.60
2023-05-14T01:46:20.325Z,11.60
2023-05-14T01:48:47.243Z,11.60
2023-05-14T01:51:14.821Z,11.60
2023-05-14T01:53:41.747Z,11.60
2023-05-14T01:56:08.620Z,11.60
2023-05-14T01:58:35.547Z,11.60
2023-05-14T02:01:02.487Z,11.60
2023-05-14T02:03:29.366Z,11.60
2023-05-14T02:05:56.220Z,11.60
2023-05-14T02:08:23.168Z,11.60
2023-05-14T02:10:50.057Z,11.60
2023-05-14T02:13:17.115Z,11.60
2023-05-14T02:15:44.014Z,11.60
2023-05-14T02:18:10.931Z,11.60
2023-05-14T02:20:38.089Z,11.60
2023-05-14T02:23:04.968Z,11.70
2023-05-14T02:25:31.791Z,11.60
2023-05-14T02:27:58.649Z,11.60
2023-05-14T02:30:25.702Z,11.60
2023-05-14T02:32:52.835Z,11.70
2023-05-14T02:35:19.804Z,11.70
2023-05-14T02:37:46.731Z,11.70
2023-05-14T02:40:13.630Z,11.70
2023-05-14T02:42:40.529Z,11.80
2023-05-14T02:45:07.670Z,11.80
2023-05-14T02:47:37.505Z,11.80
2023-05-14T02:50:06.473Z,11.80
2023-05-14T02:52:33.483Z,11.80
2023-05-14T02:55:00.470Z,11.80
2023-05-14T02:57:27.414Z,11.80
2023-05-14T02:59:54.319Z,11.80
2023-05-14T03:02:21.804Z,11.80
2023-05-14T03:04:49.024Z,11.80
2023-05-14T03:07:15.889Z,11.80
2023-05-14T03:09:42.723Z,11.80
2023-05-14T03:12:09.649Z,11.80
2023-05-14T03:14:36.543Z,11.80
2023-05-14T03:17:04.155Z,11.80
2023-05-14T03:19:31.097Z,11.80
2023-05-14T03:21:58.022Z,11.80
2023-05-14T03:24:25.475Z,11.80
2023-05-14T03:26:52.347Z,11.80
2023-05-14T03:29:19.246Z,11.90
2023-05-14T03:31:46.125Z,11.90
2023-05-14T03:34:13.286Z,11.90
2023-05-14T03:36:40.170Z,11.90
2023-05-14T03:39:07.186Z,11.90
2023-05-14T03:41:36.146Z,11.90
2023-05-14T03:44:03.030Z,11.90
2023-05-14T03:46:29.859Z,11.90
2023-05-14T03:48:56.743Z,12.00
2023-05-14T03:51:23.619Z,12.10
2023-05-14T03:53:50.578Z,12.20
2023-05-14T03:56:17.434Z,12.20
2023-05-14T03:58:44.301Z,12.10
2023-05-14T04:01:11.194Z,12.10
2023-05-14T04:03:38.195Z,12.00
2023-05-14T04:06:05.521Z,11.90
2023-05-14T04:08:32.468Z,11.90
2023-05-14T04:10:59.328Z,11.90
2023-05-14T04:13:26.182Z,11.90
2023-05-14T04:15:53.270Z,11.90
2023-05-14T04:18:20.295Z,11.90
2023-05-14T04:20:47.222Z,11.90
2023-05-14T04:23:14.083Z,11.90
2023-05-14T04:25:40.936Z,11.90
2023-05-14T04:28:07.751Z,11.90
2023-05-14T04:30:34.674Z,11.90
2023-05-14T04:33:01.594Z,11.90
2023-05-14T04:35:28.742Z,11.90
2023-05-14T04:37:55.804Z,11.90
2023-05-14T04:40:22.963Z,11.80
2023-05-14T04:42:50.263Z,11.80
2023-05-14T04:45:17.282Z,11.80
2023-05-14T04:47:45.113Z,11.80
2023-05-14T04:50:12.154Z,11.80
2023-05-14T04:52:39.432Z,11.80
2023-05-14T04:55:06.936Z,11.80
2023-05-14T04:57:33.935Z,11.80
2023-05-14T05:00:00.945Z,11.80
2023-05-14T05:02:27.875Z,11.80
2023-05-14T05:04:54.812Z,11.80
2023-05-14T05:07:21.710Z,11.80
2023-05-14T05:09:48.569Z,11.80
2023-05-14T05:12:15.502Z,11.80
2023-05-14T05:14:42.389Z,11.80
2023-05-14T05:17:09.260Z,11.80
2023-05-14T05:19:43.753Z,11.80
2023-05-14T05:22:11.802Z,11.90
2023-05-14T05:24:38.768Z,11.80
2023-05-14T05:27:06.194Z,11.90
2023-05-14T05:29:33.131Z,11.90
2023-05-14T05:32:00.182Z,11.90
2023-05-14T05:34:27.600Z,11.90
2023-05-14T05:36:54.435Z,11.90
2023-05-14T05:39:21.303Z,11.90
2023-05-14T05:41:48.156Z,11.90
2023-05-14T05:44:14.998Z,11.90
2023-05-14T05:46:41.934Z,11.90
2023-05-14T05:49:08.911Z,12.00
2023-05-14T05:51:35.800Z,12.00
2023-05-14T05:54:02.667Z,12.00
2023-05-14T05:56:29.522Z,12.00
2023-05-14T05:58:56.376Z,12.00
2023-05-14T06:01:23.252Z,12.00
2023-05-14T06:03:50.103Z,12.10
2023-05-14T06:06:17.003Z,12.10
2023-05-14T06:08:43.857Z,12.20
2023-05-14T06:11:10.770Z,12.20
2023-05-14T06:13:37.669Z,12.20
2023-05-14T06:16:04.700Z,12.20
2023-05-14T06:18:31.682Z,12.20
2023-05-14T06:21:00.220Z,12.20
2023-05-14T06:23:27.232Z,12.20
2023-05-14T06:25:54.160Z,12.20
2023-05-14T06:28:21.012Z,12.20
2023-05-14T06:30:50.484Z,12.20
2023-05-14T06:33:19.308Z,12.20
2023-05-14T06:35:47.386Z,12.30
2023-05-14T06:38:14.257Z,12.30
2023-05-14T06:40:41.205Z,12.30
2023-05-14T06:43:08.067Z,12.30
2023-05-14T06:45:34.939Z,12.30
2023-05-14T06:48:01.934Z,12.30
2023-05-14T06:50:29.131Z,12.40
2023-05-14T06:52:55.956Z,12.40
2023-05-14T06:55:23.004Z,12.40
2023-05-14T06:57:50.792Z,12.40
2023-05-14T07:00:18.061Z,12.50
2023-05-14T07:02:45.006Z,12.50
2023-05-14T07:05:11.915Z,12.50
2023-05-14T07:07:38.823Z,12.50
2023-05-14T07:10:06.599Z,12.60
2023-05-14T07:12:33.487Z,12.70
2023-05-14T07:15:00.530Z,12.80
2023-05-14T07:17:27.633Z,12.80
2023-05-14T07:19:56.044Z,12.80
2023-05-14T07:22:22.913Z,12.90
2023-05-14T07:24:50.450Z,12.90
2023-05-14T07:27:17.382Z,12.90
2023-05-14T07:29:44.509Z,13.00
2023-05-14T07:32:13.302Z,13.10
2023-05-14T07:34:41.743Z,13.10
2023-05-14T07:37:08.944Z,13.20
2023-05-14T07:39:36.108Z,13.20
2023-05-14T07:42:04.772Z,13.20
2023-05-14T07:44:31.652Z,13.20
2023-05-14T07:46:58.573Z,13.20
2023-05-14T07:49:25.721Z,13.40
2023-05-14T07:51:52.697Z,13.40
2023-05-14T07:54:19.533Z,13.50
2023-05-14T07:56:46.415Z,13.50
2023-05-14T07:59:13.336Z,13.50
2023-05-14T08:01:40.218Z,13.50
2023-05-14T08:04:07.190Z,13.70
2023-05-14T08:06:34.157Z,13.80
2023-05-14T08:09:01.038Z,13.80
2023-05-14T08:11:27.898Z,13.70
2023-05-14T08:13:54.726Z,13.60
2023-05-14T08:16:22.256Z,13.40
2023-05-14T08:18:49.413Z,13.50
2023-05-14T08:21:16.307Z,13.60
2023-05-14T08:23:43.323Z,13.60
2023-05-14T08:26:10.222Z,13.60
2023-05-14T08:28:37.090Z,13.70
2023-05-14T08:31:04.017Z,13.90
2023-05-14T08:33:30.864Z,13.90
2023-05-14T08:36:00.548Z,13.90
2023-05-14T08:38:27.454Z,13.90
2023-05-14T08:41:01.145Z,13.90
2023-05-14T08:43:55.349Z,13.90
2023-05-14T08:46:24.682Z,14.00
2023-05-14T08:48:58.536Z,14.10
2023-05-14T08:51:27.897Z,14.00
2023-05-14T08:53:55.316Z,14.00
2023-05-14T08:56:23.278Z,13.90
2023-05-14T08:58:50.198Z,13.90
2023-05-14T09:01:18.910Z,13.90
2023-05-14T09:03:47.017Z,13.90
2023-05-14T09:06:14.550Z,14.00
2023-05-14T09:08:41.609Z,14.10
2023-05-14T09:11:08.859Z,14.00
2023-05-14T09:13:38.861Z,14.10
2023-05-14T09:16:06.133Z,14.10
2023-05-14T09:18:35.371Z,14.10
2023-05-14T09:21:02.359Z,14.00
2023-05-14T09:23:34.517Z,14.00
2023-05-14T09:26:06.127Z,14.00
2023-05-14T09:28:33.016Z,13.90
2023-05-14T09:30:59.890Z,13.90
2023-05-14T09:33:31.088Z,13.90
2023-05-14T09:36:02.295Z,13.90
2023-05-14T09:38:32.913Z,13.90
2023-05-14T09:41:00.873Z,13.90
2023-05-14T09:43:27.805Z,13.80
2023-05-14T09:45:54.696Z,13.80
2023-05-14T09:48:22.506Z,13.90
2023-05-14T09:50:49.745Z,13.90
2023-05-14T09:53:17.888Z,13.80
2023-05-14T09:55:45.695Z,13.80
2023-05-14T09:58:14.583Z,13.80
2023-05-14T10:00:47.341Z,13.80
2023-05-14T10:03:17.935Z,13.90
2023-05-14T10:05:50.242Z,13.80
2023-05-14T10:08:27.527Z,13.90
2023-05-14T10:10:56.158Z,13.90
2023-05-14T10:13:40.711Z,14.00
2023-05-14T10:16:17.334Z,14.10
2023-05-14T10:18:48.611Z,14.10
2023-05-14T10:21:20.191Z,14.10
2023-05-14T10:23:48.455Z,14.20
2023-05-14T10:26:16.010Z,14.20
2023-05-14T10:28:43.708Z,14.20
2023-05-14T10:31:10.826Z,14.20
2023-05-14T10:33:50.418Z,14.30
2023-05-14T10:36:21.020Z,14.40
2023-05-14T10:38:54.888Z,14.40
2023-05-14T10:41:22.030Z,14.40
2023-05-14T10:43:50.085Z,14.40
2023-05-14T10:46:17.004Z,14.50
2023-05-14T10:48:45.336Z,14.50
2023-05-14T10:51:13.207Z,14.50
2023-05-14T10:53:44.160Z,14.40
2023-05-14T10:56:13.759Z,14.50
2023-05-14T10:58:44.236Z,14.40
2023-05-14T11:01:12.933Z,14.40
2023-05-14T11:03:45.981Z,14.50
2023-05-14T11:06:15.058Z,14.40
2023-05-14T11:08:42.910Z,14.40
2023-05-14T11:11:11.048Z,14.40
2023-05-14T11:13:38.618Z,14.40
2023-05-14T11:18:41.908Z,14.40
2023-05-14T11:21:09.055Z,14.40
2023-05-14T11:23:35.943Z,14.30
2023-05-14T11:26:02.904Z,14.30
2023-05-14T11:28:30.146Z,14.20
2023-05-14T11:30:57.038Z,14.20
2023-05-14T11:33:23.977Z,14.20
2023-05-14T11:35:52.090Z,14.20
2023-05-14T11:38:20.538Z,14.10
2023-05-14T11:40:58.545Z,14.10
2023-05-14T11:43:29.537Z,14.10
2023-05-14T11:45:56.832Z,14.10
2023-05-14T11:48:24.482Z,14.10
2023-05-14T11:50:53.193Z,14.00
2023-05-14T11:53:29.946Z,14.00
2023-05-14T11:56:00.074Z,14.00
2023-05-14T11:58:26.942Z,14.00
2023-05-14T12:00:56.005Z,13.90
2023-05-14T12:03:26.255Z,13.90
2023-05-14T12:05:57.315Z,13.80
2023-05-14T12:08:28.993Z,13.80
2023-05-14T12:10:57.888Z,13.80
2023-05-14T12:13:30.886Z,13.70
2023-05-14T12:16:00.453Z,13.80
2023-05-14T12:18:29.488Z,13.70
2023-05-14T12:21:01.982Z,13.70
2023-05-14T12:23:30.739Z,13.70
2023-05-14T12:26:06.531Z,13.70
2023-05-14T12:28:37.692Z,13.60
2023-05-14T12:31:05.097Z,13.70
2023-05-14T12:33:33.644Z,13.70
2023-05-14T12:36:20.625Z,13.70
2023-05-14T12:38:49.936Z,13.70
2023-05-14T12:41:18.087Z,13.60
2023-05-14T12:43:47.577Z,13.60
2023-05-14T12:46:15.050Z,13.50
2023-05-14T12:48:41.926Z,13.50
2023-05-14T12:51:08.841Z,13.50
2023-05-14T12:53:35.861Z,13.50
2023-05-14T12:56:02.874Z,13.50
2023-05-14T12:58:30.035Z,13.50
2023-05-14T13:00:56.947Z,13.50
2023-05-14T13:03:24.093Z,13.50
2023-05-14T13:05:54.680Z,13.40
2023-05-14T13:08:25.000Z,13.50
2023-05-14T13:10:55.935Z,13.40
2023-05-14T13:13:23.689Z,13.40
2023-05-14T13:15:50.960Z,13.40
2023-05-14T13:18:18.217Z,13.40
2023-05-14T13:20:47.511Z,13.40
2023-05-14T13:23:14.932Z,13.40
2023-05-14T13:25:41.832Z,13.40
2023-05-14T13:28:09.182Z,13.40
2023-05-14T13:30:36.096Z,13.40
2023-05-14T13:33:03.118Z,13.40
2023-05-14T13:35:30.141Z,13.40
2023-05-14T13:37:57.007Z,13.30
2023-05-14T13:40:23.874Z,13.30
2023-05-14T13:42:50.984Z,13.30
2023-05-14T13:45:17.869Z,13.30
2023-05-14T13:47:44.773Z,13.30
2023-05-14T13:50:11.762Z,13.30
2023-05-14T13:52:39.192Z,13.30
2023-05-14T13:55:06.811Z,13.20
2023-05-14T13:57:33.698Z,13.20
2023-05-14T14:00:00.999Z,13.20
2023-05-14T14:02:27.884Z,13.20
2023-05-14T14:04:54.786Z,13.20
2023-05-14T14:07:21.686Z,13.20
2023-05-14T14:09:48.506Z,13.10
2023-05-14T14:12:15.582Z,13.10
2023-05-14T14:14:42.503Z,13.10
2023-05-14T14:17:09.474Z,13.10
2023-05-14T14:19:36.289Z,13.10
2023-05-14T14:22:03.465Z,13.10
2023-05-14T14:24:30.620Z,13.00
2023-05-14T14:26:57.591Z,13.00
2023-05-14T14:29:24.507Z,13.00
2023-05-14T14:31:51.442Z,12.90
2023-05-14T14:34:18.359Z,12.80
2023-05-14T14:36:45.218Z,12.70
2023-05-14T14:39:12.096Z,12.70
2023-05-14T14:41:39.309Z,12.70
2023-05-14T14:44:06.597Z,12.60
2023-05-14T14:46:33.676Z,12.50
2023-05-14T14:49:00.586Z,12.40
2023-05-14T14:51:27.730Z,12.40
2023-05-14T14:53:54.623Z,12.40
2023-05-14T14:56:22.133Z,12.30
2023-05-14T14:58:49.052Z,12.30
2023-05-14T15:01:16.997Z,12.20
2023-05-14T15:03:45.752Z,12.20
2023-05-14T15:06:12.672Z,12.10
2023-05-14T15:08:39.590Z,12.10
2023-05-14T15:11:06.793Z,12.10
2023-05-14T15:13:33.794Z,12.10
2023-05-14T15:16:00.860Z,12.00
2023-05-14T15:18:27.766Z,12.00
2023-05-14T15:20:54.766Z,12.00
2023-05-14T15:23:21.659Z,12.00
2023-05-14T15:25:49.526Z,12.00
2023-05-14T15:28:16.482Z,12.00
2023-05-14T15:30:43.427Z,12.00
2023-05-14T15:33:10.898Z,12.00
2023-05-14T15:35:37.945Z,12.00
2023-05-14T15:38:04.864Z,12.00
2023-05-14T15:40:33.188Z,11.90
2023-05-14T15:43:00.034Z,11.90
2023-05-14T15:45:26.953Z,11.90
2023-05-14T15:47:53.913Z,11.90
2023-05-14T15:50:21.160Z,11.90
2023-05-14T15:52:48.529Z,11.90
2023-05-14T15:55:15.787Z,11.90
2023-05-14T15:57:42.683Z,11.90
2023-05-14T16:00:13.092Z,11.90
2023-05-14T16:02:40.133Z,11.90
2023-05-14T16:05:08.311Z,11.90
2023-05-14T16:07:35.905Z,11.90
2023-05-14T16:10:03.332Z,11.90
2023-05-14T16:12:30.331Z,11.90
2023-05-14T16:14:57.740Z,11.90
2023-05-14T16:17:24.805Z,11.90
2023-05-14T16:19:53.469Z,11.90
2023-05-14T16:22:22.345Z,11.90
2023-05-14T16:24:49.203Z,11.90
2023-05-14T16:27:18.531Z,11.90
2023-05-14T16:29:45.716Z,11.90
2023-05-14T16:32:12.746Z,12.00
2023-05-14T16:34:39.802Z,12.00
2023-05-14T16:37:06.744Z,12.00
2023-05-14T16:39:33.625Z,12.00
2023-05-14T16:42:00.458Z,12.00
2023-05-14T16:44:27.329Z,12.10
2023-05-14T16:46:54.189Z,12.00
2023-05-14T16:49:22.527Z,12.10
2023-05-14T16:51:49.454Z,12.10
2023-05-14T16:54:16.304Z,12.10
2023-05-14T16:56:48.068Z,12.10
2023-05-14T16:59:16.934Z,12.10
2023-05-14T17:01:44.754Z,12.10
2023-05-14T17:04:11.786Z,12.10
2023-05-14T17:06:38.984Z,12.10
2023-05-14T17:09:07.167Z,12.10
2023-05-14T17:11:34.170Z,12.10
2023-05-14T17:14:01.088Z,12.10
2023-05-14T17:16:28.328Z,12.10
2023-05-14T17:18:55.207Z,12.10
2023-05-14T17:21:22.103Z,12.10
2023-05-14T17:23:48.991Z,12.10
2023-05-14T17:26:16.126Z,12.10
2023-05-14T17:28:42.930Z,12.10
2023-05-14T17:31:09.780Z,12.10
2023-05-14T17:33:36.777Z,12.10
2023-05-14T17:36:03.850Z,12.10
2023-05-14T17:38:30.990Z,12.10
2023-05-14T17:40:57.874Z,12.10
2023-05-14T17:43:24.838Z,12.10
2023-05-14T17:45:54.468Z,12.10
2023-05-14T17:48:23.335Z,12.10
2023-05-14T17:50:51.994Z,12.10
2023-05-14T17:53:18.992Z,12.10
2023-05-14T17:55:46.082Z,12.20
2023-05-14T17:58:15.625Z,12.20
2023-05-14T18:00:43.511Z,12.20
2023-05-14T18:03:11.193Z,12.20
2023-05-14T18:05:44.340Z,12.30
2023-05-14T18:08:11.360Z,12.30
2023-05-14T18:10:38.422Z,12.30
2023-05-14T18:13:05.506Z,12.30
2023-05-14T18:15:32.525Z,12.30
2023-05-14T18:17:59.873Z,12.40
2023-05-14T18:20:26.850Z,12.40
2023-05-14T18:22:53.824Z,12.40
2023-05-14T18:25:20.943Z,12.40
2023-05-14T18:27:48.527Z,12.40
2023-05-14T18:30:16.403Z,12.40
2023-05-14T18:32:44.763Z,12.40
2023-05-14T18:35:12.834Z,12.40
2023-05-14T18:37:39.906Z,12.40
2023-05-14T18:40:07.984Z,12.40
2023-05-14T18:42:35.628Z,12.40
2023-05-14T18:45:02.822Z,12.40
2023-05-14T18:47:30.182Z,12.40
2023-05-14T18:49:59.659Z,12.40
2023-05-14T18:52:27.319Z,12.40
2023-05-14T18:54:55.084Z,12.50
2023-05-14T18:57:22.365Z,12.50
2023-05-14T18:59:50.235Z,12.50
2023-05-14T19:02:17.504Z,12.50
2023-05-14T19:04:52.301Z,12.50
2023-05-14T19:07:21.002Z,12.50
2023-05-14T19:09:48.462Z,12.50
2023-05-14T19:12:16.269Z,12.50
2023-05-14T19:14:43.577Z,12.60
2023-05-14T19:17:11.425Z,12.60
2023-05-14T19:19:39.543Z,12.50
2023-05-14T19:22:07.328Z,12.50
2023-05-14T19:24:34.357Z,12.50
2023-05-14T19:27:01.358Z,12.50
2023-05-14T19:29:28.310Z,12.50
2023-05-14T19:31:55.220Z,12.40
2023-05-14T19:34:22.734Z,12.50
2023-05-14T19:36:50.485Z,12.50
2023-05-14T19:39:17.703Z,12.50
2023-05-14T19:41:44.835Z,12.50
2023-05-14T19:44:12.260Z,12.40
2023-05-14T19:46:40.274Z,12.40
2023-05-14T19:49:07.860Z,12.40
2023-05-14T19:51:34.982Z,12.40
2023-05-14T19:54:02.267Z,12.40
2023-05-14T19:56:29.667Z,12.40
2023-05-14T19:58:56.823Z,12.40
2023-05-14T20:01:23.853Z,12.50
2023-05-14T20:03:50.710Z,12.40
2023-05-14T20:06:18.591Z,12.50
2023-05-14T20:08:45.570Z,12.50
2023-05-14T20:11:12.714Z,12.50
2023-05-14T20:13:39.605Z,12.50
2023-05-14T20:16:06.752Z,12.50
2023-05-14T20:18:33.683Z,12.50
2023-05-14T20:21:00.750Z,12.50
2023-05-14T20:23:28.078Z,12.50
2023-05-14T20:25:55.151Z,12.50
2023-05-14T20:28:22.028Z,12.50
2023-05-14T20:30:49.022Z,12.50
2023-05-14T20:33:16.035Z,12.50
2023-05-14T20:35:44.114Z,12.50
2023-05-14T20:38:12.933Z,12.50
2023-05-14T20:40:40.242Z,12.50
2023-05-14T20:43:07.093Z,12.50
2023-05-14T20:45:34.032Z,12.60
2023-05-14T20:48:01.033Z,12.60
2023-05-14T20:50:28.134Z,12.60
2023-05-14T20:52:55.688Z,12.60
2023-05-14T20:55:23.221Z,12.60
2023-05-14T20:57:50.662Z,12.60
2023-05-14T21:00:18.005Z,12.50
2023-05-14T21:02:45.056Z,12.50
2023-05-14T21:05:12.104Z,12.50
2023-05-14T21:07:39.479Z,12.40
2023-05-14T21:10:08.691Z,12.40
2023-05-14T21:12:35.729Z,12.40
2023-05-14T21:15:02.788Z,12.40
2023-05-14T21:17:29.963Z,12.40
2023-05-14T21:19:56.889Z,12.40
2023-05-14T21:22:24.783Z,12.40
2023-05-14T21:24:51.678Z,12.40
2023-05-14T21:27:19.186Z,12.40
2023-05-14T21:29:46.545Z,12.40
2023-05-14T21:32:13.533Z,12.40
2023-05-14T21:34:40.389Z,12.40
2023-05-14T21:37:07.335Z,12.30
2023-05-14T21:39:34.281Z,12.30
2023-05-14T21:42:01.184Z,12.30
2023-05-14T21:44:28.056Z,12.30
2023-05-14T21:46:55.247Z,12.30
2023-05-14T21:49:22.172Z,12.40
2023-05-14T21:51:53.177Z,12.30
2023-05-14T21:54:20.979Z,12.30
2023-05-14T21:56:48.012Z,12.30
2023-05-14T21:59:15.050Z,12.30
2023-05-14T22:02:04.743Z,12.30
2023-05-14T22:04:28.847Z,12.30
2023-05-14T22:06:56.288Z,12.30
2023-05-14T22:09:23.177Z,12.30
2023-05-14T22:11:50.012Z,12.30
2023-05-14T22:14:17.308Z,12.30
2023-05-14T22:16:44.262Z,12.30
2023-05-14T22:19:11.506Z,12.40
2023-05-14T22:21:38.412Z,12.40
2023-05-14T22:24:05.549Z,12.40
2023-05-14T22:26:32.515Z,12.40
2023-05-14T22:28:59.442Z,12.40
2023-05-14T22:31:26.371Z,12.40
2023-05-14T22:33:53.681Z,12.40
2023-05-14T22:36:20.590Z,12.40
2023-05-14T22:38:47.485Z,12.40
2023-05-14T22:41:14.344Z,12.40
2023-05-14T22:43:41.286Z,12.40
2023-05-14T22:46:08.217Z,12.50
2023-05-14T22:48:35.079Z,12.40
2023-05-14T22:51:01.968Z,12.40
2023-05-14T22:53:28.792Z,12.50
2023-05-14T22:55:55.729Z,12.50
2023-05-14T22:58:22.638Z,12.40
2023-05-14T23:00:49.530Z,12.50
2023-05-14T23:03:16.509Z,12.50
2023-05-14T23:05:43.459Z,12.50
2023-05-14T23:08:11.048Z,12.50
2023-05-14T23:10:37.958Z,12.50
2023-05-14T23:13:04.943Z,12.50
2023-05-14T23:15:32.740Z,12.50
2023-05-14T23:18:00.163Z,12.50
2023-05-14T23:20:27.140Z,12.50
2023-05-14T23:22:54.176Z,12.60
2023-05-14T23:25:21.116Z,12.60
2023-05-14T23:27:48.317Z,12.60
2023-05-14T23:30:15.295Z,12.60
2023-05-14T23:32:42.201Z,12.60
2023-05-14T23:35:09.631Z,12.70
2023-05-14T23:37:41.772Z,12.60
2023-05-14T23:40:09.684Z,12.70
2023-05-14T23:42:36.616Z,12.70
2023-05-14T23:45:03.728Z,12.70
2023-05-14T23:47:30.694Z,12.80
2023-05-14T23:49:57.680Z,12.70
2023-05-14T23:52:24.587Z,12.70
2023-05-14T23:54:51.475Z,12.80
2023-05-14T23:57:18.358Z,12.80
2023-05-14T23:59:46.185Z,12.80
